Weather at Cardiff Heliport

Public forecast

Using degrees Celsius for public forecast. Weather courtesy of forecast.io.

Closest aviation weather report (METAR) to Cardiff Heliport

Closest report is Cardiff International Airport, 8.8 nm (16.3 km) WSW. Retrieved 2021/06/12 11:20 UTC (7 minutes ago):

EGFF 121120Z AUTO 25009KT 220V300 9999 NCD 17/15 Q1025

Closest aviation forecast (TAF) to Cardiff Heliport

Closest forecast is Cardiff International Airport, 8.8 nm (16.3 km) WSW. Retrieved 2021/06/12 06:00 UTC (5 hours ago):

TAF EGFF 120455Z 1206/1306 29010KT 9999 BKN009 BECMG 1206/1208 FEW009 PROB30 TEMPO 1206/1208 9000